Time;durP1;ratioP1;P1;durP2;ratioP2;P2;SDS_P1;SDS_P2;PMS_P1;PMS_P2;Temp;Humidity;BMP_temperature;BMP_pressure;BME280_temperature;BME280_humidity;BME280_pressure;Samples;Min_cycle;Max_cycle;Signal;HPM_P1;HPM_P2
2022/10/09 00:02:15;;;;;;;;;;;;;;;;;;4974687;28;19918;-78
2022/10/09 00:04:41;;;;;;;;;;;;;;;;;;4973390;28;20000;-79
2022/10/09 00:07:06;;;;;;;;;;;;;;;;;;4973924;28;19928;-78
2022/10/09 00:09:31;;;;;;;;;;;;;;;;;;4973905;28;19918;-78
2022/10/09 00:11:57;;;;;;;;;;;;;;;;;;4974599;28;20106;-77
2022/10/09 00:14:22;;;;;;;;;;;;;;;;;;4976159;28;19917;-78
2022/10/09 00:16:47;;;;;;;;;;;;;;;;;;4983688;28;19909;-77
2022/10/09 00:19:12;;;;;;;;;;;;;;;;;;4983409;28;19949;-79
2022/10/09 00:21:38;;;;;;;;;;;;;;;;;;4983691;28;20311;-79
2022/10/09 00:24:03;;;;;;;;;;;;;;;;;;4983572;28;19909;-78
2022/10/09 00:26:29;;;;;;;;;;;;;;;;;;4983745;28;19989;-79
2022/10/09 00:28:54;;;;;;;;;;;;;;;;;;4983559;28;19917;-78
2022/10/09 00:31:19;;;;;;;;;;;;;;;;;;4983587;28;19917;-79
2022/10/09 00:33:45;;;;;;;;;;;;;;;;;;4983406;28;19910;-78
2022/10/09 00:36:11;;;;;;;;;;;;;;;;;;4983268;28;19910;-78
2022/10/09 00:38:37;;;;;;;;;;;;;;;;;;4981585;28;19941;-78
2022/10/09 00:41:02;;;;;;;;;;;;;;;;;;4980564;28;19921;-77
2022/10/09 00:43:44;;;;;;;;;;;;;;;;;;4982770;28;19917;-78
2022/10/09 00:46:16;;;;;;;;;;;;;;;;;;4983003;28;19913;-78
2022/10/09 00:48:41;;;;;;;;;;;;;;;;;;4982546;28;19945;-80
2022/10/09 00:51:06;;;;;;;;;;;;;;;;;;4982763;28;20210;-77
2022/10/09 00:53:31;;;;;;;;;;;;;;;;;;4983144;28;19917;-78
2022/10/09 00:55:57;;;;;;;;;;;;;;;;;;4983134;28;20314;-80
2022/10/09 00:58:23;;;;;;;;;;;;;;;;;;4982867;28;19917;-79
2022/10/09 01:00:48;;;;;;;;;;;;;;;;;;4983079;28;19947;-80
2022/10/09 01:03:13;;;;;;;;;;;;;;;;;;4983117;28;19979;-79
2022/10/09 01:05:42;;;;;;;;;;;;;;;;;;4982583;28;19917;-79
2022/10/09 01:08:12;;;;;;;;;;;;;;;;;;4982898;28;19910;-78
2022/10/09 01:10:46;;;;;;;;;;;;;;;;;;4975284;28;19920;-77
2022/10/09 01:13:31;;;;;;;;;;;;;;;;;;4978642;28;19914;-79
2022/10/09 01:16:06;;;;;;;;;;;;;;;;;;4981267;28;19910;-80
2022/10/09 01:18:42;;;;;;;;;;;;;;;;;;4982023;28;19916;-78
2022/10/09 01:21:14;;;;;;;;;;;;;;;;;;4982657;28;19916;-78
2022/10/09 01:23:48;;;;;;;;;;;;;;;;;;4982644;28;19910;-80
2022/10/09 01:26:14;;;;;;;;;;;;;;;;;;4982794;28;19910;-79
2022/10/09 01:28:41;;;;;;;;;;;;;;;;;;4982493;28;19910;-79
2022/10/09 01:31:08;;;;;;;;;;;;;;;;;;4982767;28;19917;-78
2022/10/09 01:33:34;;;;;;;;;;;;;;;;;;4982681;28;19918;-78
2022/10/09 01:36:00;;;;;;;;;;;;;;;;;;4982449;28;19948;-78
2022/10/09 01:38:26;;;;;;;;;;;;;;;;;;4982403;28;19918;-80
2022/10/09 01:40:52;;;;;;;;;;;;;;;;;;4981287;28;19922;-78
2022/10/09 01:43:17;;;;;;;;;;;;;;;;;;4982669;28;19929;-79
2022/10/09 01:45:44;;;;;;;;;;;;;;;;;;4982342;28;19941;-78
2022/10/09 01:48:13;;;;;;;;;;;;;;;;;;4982455;28;20232;-78
2022/10/09 01:50:43;;;;;;;;;;;;;;;;;;4982021;28;20186;-79
2022/10/09 01:53:11;;;;;;;;;;;;;;;;;;4982601;28;19981;-80
2022/10/09 01:55:42;;;;;;;;;;;;;;;;;;4984638;28;20099;-77
2022/10/09 01:58:11;;;;;;;;;;;;;;;;;;4986392;28;19948;-80
2022/10/09 02:00:40;;;;;;;;;;;;;;;;;;4986218;28;19910;-80
2022/10/09 02:03:08;;;;;;;;;;;;;;;;;;4986293;28;19910;-77
2022/10/09 02:05:34;;;;;;;;;;;;;;;;;;4986082;28;19973;-78
2022/10/09 02:07:59;;;;;;;;;;;;;;;;;;4986341;28;19917;-79
2022/10/09 02:10:25;;;;;;;;;;;;;;;;;;4985925;28;19964;-78
2022/10/09 02:12:54;;;;;;;;;;;;;;;;;;4986248;28;20166;-79
2022/10/09 02:15:21;;;;;;;;;;;;;;;;;;4986048;28;19910;-79
2022/10/09 02:17:48;;;;;;;;;;;;;;;;;;4985871;28;19914;-78
2022/10/09 02:20:17;;;;;;;;;;;;;;;;;;4985699;28;19920;-78
2022/10/09 02:22:43;;;;;;;;;;;;;;;;;;4985864;28;19917;-78
2022/10/09 02:25:08;;;;;;;;;;;;;;;;;;4985782;28;19906;-80
2022/10/09 02:27:34;;;;;;;;;;;;;;;;;;4985985;28;19917;-79
2022/10/09 02:29:59;;;;;;;;;;;;;;;;;;4985659;28;19925;-78
2022/10/09 02:32:25;;;;;;;;;;;;;;;;;;4985767;28;19993;-77
2022/10/09 02:34:50;;;;;;;;;;;;;;;;;;4985591;28;19949;-80
2022/10/09 02:37:16;;;;;;;;;;;;;;;;;;4985586;28;20088;-80
2022/10/09 02:39:42;;;;;;;;;;;;;;;;;;4985559;28;19910;-78
2022/10/09 02:42:08;;;;;;;;;;;;;;;;;;4982630;28;19984;-79
2022/10/09 02:44:33;;;;;;;;;;;;;;;;;;4985541;28;19921;-79
2022/10/09 02:46:58;;;;;;;;;;;;;;;;;;4985549;28;20194;-79
2022/10/09 02:49:24;;;;;;;;;;;;;;;;;;4985513;28;19949;-78
2022/10/09 02:51:49;;;;;;;;;;;;;;;;;;4985284;28;19913;-78
2022/10/09 02:54:14;;;;;;;;;;;;;;;;;;4984551;28;19949;-79
2022/10/09 02:56:39;;;;;;;;;;;;;;;;;;4985026;28;19910;-78
2022/10/09 02:59:05;;;;;;;;;;;;;;;;;;4985093;28;19910;-79
2022/10/09 03:01:30;;;;;;;;;;;;;;;;;;4985352;28;19990;-79
2022/10/09 03:03:55;;;;;;;;;;;;;;;;;;4984963;28;19913;-77
2022/10/09 03:06:22;;;;;;;;;;;;;;;;;;4982950;28;19910;-79
2022/10/09 03:08:48;;;;;;;;;;;;;;;;;;4985132;28;19940;-80
2022/10/09 03:11:14;;;;;;;;;;;;;;;;;;4985151;28;20217;-79
2022/10/09 03:13:39;;;;;;;;;;;;;;;;;;4984976;28;19957;-79
2022/10/09 03:16:12;;;;;;;;;;;;;;;;;;4984709;28;19909;-77
2022/10/09 03:18:37;;;;;;;;;;;;;;;;;;4984875;28;19917;-78
2022/10/09 03:21:06;;;;;;;;;;;;;;;;;;4984503;28;20009;-78
2022/10/09 03:23:31;;;;;;;;;;;;;;;;;;4984971;28;19918;-78
2022/10/09 03:26:01;;;;;;;;;;;;;;;;;;4983736;28;20229;-80
2022/10/09 03:28:27;;;;;;;;;;;;;;;;;;4980848;28;19918;-79
2022/10/09 03:30:53;;;;;;;;;;;;;;;;;;4983380;28;19964;-79
2022/10/09 03:33:18;;;;;;;;;;;;;;;;;;4984439;28;19909;-79
2022/10/09 03:35:45;;;;;;;;;;;;;;;;;;4983564;28;19987;-79
2022/10/09 03:38:10;;;;;;;;;;;;;;;;;;4983558;28;19941;-78
2022/10/09 03:40:35;;;;;;;;;;;;;;;;;;4978139;28;19917;-79
2022/10/09 03:43:00;;;;;;;;;;;;;;;;;;4984437;28;19910;-79
2022/10/09 03:45:26;;;;;;;;;;;;;;;;;;4984085;28;19910;-78
2022/10/09 03:47:51;;;;;;;;;;;;;;;;;;4983807;28;19921;-79
2022/10/09 03:50:16;;;;;;;;;;;;;;;;;;4982707;28;19949;-79
2022/10/09 03:52:41;;;;;;;;;;;;;;;;;;4983965;28;19910;-78
2022/10/09 03:55:07;;;;;;;;;;;;;;;;;;4984164;28;19941;-80
2022/10/09 03:57:33;;;;;;;;;;;;;;;;;;4983909;28;19914;-80
2022/10/09 03:59:58;;;;;;;;;;;;;;;;;;4983752;28;20213;-80
2022/10/09 04:02:23;;;;;;;;;;;;;;;;;;4983717;28;19927;-79
2022/10/09 04:04:49;;;;;;;;;;;;;;;;;;4983807;28;19914;-80
2022/10/09 04:07:14;;;;;;;;;;;;;;;;;;4983597;28;20013;-80
2022/10/09 04:09:39;;;;;;;;;;;;;;;;;;4983670;28;19914;-79
2022/10/09 04:12:04;;;;;;;;;;;;;;;;;;4983729;28;19916;-79
2022/10/09 04:14:30;;;;;;;;;;;;;;;;;;4983477;28;20106;-79
2022/10/09 04:16:55;;;;;;;;;;;;;;;;;;4983466;28;19918;-79
2022/10/09 04:19:20;;;;;;;;;;;;;;;;;;4982602;28;19910;-79
2022/10/09 04:21:45;;;;;;;;;;;;;;;;;;4983251;28;19960;-80
2022/10/09 04:24:10;;;;;;;;;;;;;;;;;;4983415;28;19943;-80
2022/10/09 04:26:36;;;;;;;;;;;;;;;;;;4983062;28;19953;-78
2022/10/09 04:29:01;;;;;;;;;;;;;;;;;;4983486;28;19922;-79
2022/10/09 04:31:26;;;;;;;;;;;;;;;;;;4983123;28;19937;-78
2022/10/09 04:33:53;;;;;;;;;;;;;;;;;;4983375;28;20206;-79
2022/10/09 04:36:18;;;;;;;;;;;;;;;;;;4978413;28;19973;-80
2022/10/09 04:38:53;;;;;;;;;;;;;;;;;;5098763;27;19959;-79
2022/10/09 04:41:18;;;;;;;;;;;;;;;;;;5085322;28;19917;-79
2022/10/09 04:43:43;;;;;;;;;;;;;;;;;;5074554;28;20220;-79
2022/10/09 04:46:10;;;;;;;;;;;;;;;;;;5077480;28;19923;-80
2022/10/09 04:48:39;;;;;;;;;;;;;;;;;;5081112;28;19917;-78
2022/10/09 04:51:05;;;;;;;;;;;;;;;;;;5076830;28;20248;-79
2022/10/09 04:53:30;;;;;;;;;;;;;;;;;;5076381;28;19913;-78
2022/10/09 04:55:56;;;;;;;;;;;;;;;;;;5067733;28;19975;-80
2022/10/09 04:58:21;;;;;;;;;;;;;;;;;;5073912;28;19924;-79
2022/10/09 05:00:47;;;;;;;;;;;;;;;;;;5071556;28;19912;-79
2022/10/09 05:03:13;;;;;;;;;;;;;;;;;;5073212;28;19982;-79
2022/10/09 05:05:38;;;;;;;;;;;;;;;;;;5076311;28;20155;-80
2022/10/09 05:08:03;;;;;;;;;;;;;;;;;;5074818;28;19920;-80
2022/10/09 05:10:29;;;;;;;;;;;;;;;;;;5078286;28;20186;-78
2022/10/09 05:12:54;;;;;;;;;;;;;;;;;;5077013;28;19962;-79
2022/10/09 05:15:20;;;;;;;;;;;;;;;;;;5078541;28;19984;-80
2022/10/09 05:17:45;;;;;;;;;;;;;;;;;;5073615;28;19928;-80
2022/10/09 05:20:10;;;;;;;;;;;;;;;;;;5069464;28;19920;-80
2022/10/09 05:22:35;;;;;;;;;;;;;;;;;;5075062;28;19917;-77
2022/10/09 05:25:01;;;;;;;;;;;;;;;;;;5069871;28;19947;-79
2022/10/09 05:27:26;;;;;;;;;;;;;;;;;;5074152;28;19916;-78
2022/10/09 05:29:51;;;;;;;;;;;;;;;;;;5074398;28;19963;-78
2022/10/09 05:32:17;;;;;;;;;;;;;;;;;;5077759;28;20205;-78
2022/10/09 05:34:42;;;;;;;;;;;;;;;;;;5079453;28;20255;-79
2022/10/09 05:37:07;;;;;;;;;;;;;;;;;;5075811;28;20031;-79
2022/10/09 05:39:34;;;;;;;;;;;;;;;;;;5077203;28;19916;-77
2022/10/09 05:42:00;;;;;;;;;;;;;;;;;;5075421;28;20077;-79
2022/10/09 05:44:25;;;;;;;;;;;;;;;;;;5076534;28;20322;-79
2022/10/09 05:46:50;;;;;;;;;;;;;;;;;;5076208;28;19923;-79
2022/10/09 05:49:15;;;;;;;;;;;;;;;;;;5068647;28;19928;-80
2022/10/09 05:51:44;;;;;;;;;;;;;;;;;;5070315;28;19924;-79
2022/10/09 05:54:13;;;;;;;;;;;;;;;;;;5062923;28;19923;-78
2022/10/09 05:56:39;;;;;;;;;;;;;;;;;;5059106;28;19924;-78
2022/10/09 05:59:13;;;;;;;;;;;;;;;;;;5056826;28;19916;-79
2022/10/09 06:01:43;;;;;;;;;;;;;;;;;;5056227;28;19917;-79
2022/10/09 06:04:11;;;;;;;;;;;;;;;;;;5055995;28;20014;-79
2022/10/09 06:06:38;;;;;;;;;;;;;;;;;;5062634;28;19913;-79
2022/10/09 06:09:04;;;;;;;;;;;;;;;;;;5063503;28;19959;-79
2022/10/09 06:11:33;;;;;;;;;;;;;;;;;;5060722;28;19913;-79
2022/10/09 06:13:59;;;;;;;;;;;;;;;;;;5068382;28;20219;-81
2022/10/09 06:16:25;;;;;;;;;;;;;;;;;;5057112;28;19917;-80
2022/10/09 06:18:51;;;;;;;;;;;;;;;;;;5059412;28;19913;-80
2022/10/09 06:21:16;;;;;;;;;;;;;;;;;;5059414;28;19982;-78
2022/10/09 06:23:42;;;;;;;;;;;;;;;;;;5060795;28;19960;-79
2022/10/09 06:26:09;;;;;;;;;;;;;;;;;;5058227;28;19932;-79
2022/10/09 06:28:37;;;;;;;;;;;;;;;;;;5057477;28;19917;-77
2022/10/09 06:31:04;;;;;;;;;;;;;;;;;;5058604;28;19920;-82
2022/10/09 06:33:30;;;;;;;;;;;;;;;;;;5058184;28;20197;-78
2022/10/09 06:36:03;;;;;;;;;;;;;;;;;;5061112;28;19943;-81
2022/10/09 06:38:28;;;;;;;;;;;;;;;;;;5081684;28;19932;-80
2022/10/09 06:40:53;;;;;;;;;;;;;;;;;;5081299;28;19912;-81
2022/10/09 06:43:19;;;;;;;;;;;;;;;;;;5081984;28;19916;-81
2022/10/09 06:45:44;;;;;;;;;;;;;;;;;;5081397;28;19920;-81
2022/10/09 06:48:09;;;;;;;;;;;;;;;;;;5083013;28;20108;-81
2022/10/09 06:50:36;;;;;;;;;;;;;;;;;;5087674;28;19984;-80
2022/10/09 06:53:02;;;;;;;;;;;;;;;;;;5081556;28;19931;-81
2022/10/09 06:55:27;;;;;;;;;;;;;;;;;;5080016;28;19940;-81
2022/10/09 06:57:52;;;;;;;;;;;;;;;;;;5086349;28;19984;-78
2022/10/09 07:00:17;;;;;;;;;;;;;;;;;;5078238;28;19983;-81
2022/10/09 07:02:43;;;;;;;;;;;;;;;;;;5079587;28;19916;-81
2022/10/09 07:05:08;;;;;;;;;;;;;;;;;;5079827;28;19969;-81
2022/10/09 07:07:33;;;;;;;;;;;;;;;;;;5081763;28;19923;-78
2022/10/09 07:09:58;;;;;;;;;;;;;;;;;;5088100;28;20112;-81
2022/10/09 07:12:24;;;;;;;;;;;;;;;;;;5082086;28;20018;-80
2022/10/09 07:14:49;;;;;;;;;;;;;;;;;;5076615;28;19916;-78
2022/10/09 07:17:14;;;;;;;;;;;;;;;;;;5079015;28;19920;-78
2022/10/09 07:19:39;;;;;;;;;;;;;;;;;;5080318;28;19948;-80
2022/10/09 07:22:10;;;;;;;;;;;;;;;;;;5093467;28;20026;-78
2022/10/09 07:24:35;;;;;;;;;;;;;;;;;;5075992;28;19958;-78
2022/10/09 07:27:00;;;;;;;;;;;;;;;;;;5080253;28;19920;-79
2022/10/09 07:29:26;;;;;;;;;;;;;;;;;;5085172;28;19992;-79
2022/10/09 07:31:51;;;;;;;;;;;;;;;;;;5080259;28;19966;-79
2022/10/09 07:34:16;;;;;;;;;;;;;;;;;;5081055;28;19916;-79
2022/10/09 07:36:41;;;;;;;;;;;;;;;;;;5063546;28;20246;-79
2022/10/09 07:39:07;;;;;;;;;;;;;;;;;;5079448;28;19916;-79
2022/10/09 07:41:32;;;;;;;;;;;;;;;;;;5080685;28;20246;-79
2022/10/09 07:43:58;;;;;;;;;;;;;;;;;;5079432;28;19996;-79
2022/10/09 07:46:23;;;;;;;;;;;;;;;;;;5081377;28;19931;-79
2022/10/09 07:48:49;;;;;;;;;;;;;;;;;;5078158;28;19952;-78
2022/10/09 07:51:16;;;;;;;;;;;;;;;;;;5075557;28;19962;-80
2022/10/09 07:53:42;;;;;;;;;;;;;;;;;;5076174;28;19917;-80
2022/10/09 07:56:12;;;;;;;;;;;;;;;;;;5077519;28;19916;-80
2022/10/09 07:58:37;;;;;;;;;;;;;;;;;;5077544;28;19920;-81
2022/10/09 08:01:06;;;;;;;;;;;;;;;;;;5081138;28;19923;-80
2022/10/09 08:03:31;;;;;;;;;;;;;;;;;;5080747;28;19920;-80
2022/10/09 08:05:57;;;;;;;;;;;;;;;;;;5090918;28;19916;-81
2022/10/09 08:08:22;;;;;;;;;;;;;;;;;;5081571;28;20374;-79
2022/10/09 08:10:47;;;;;;;;;;;;;;;;;;5080767;28;19988;-80
2022/10/09 08:13:12;;;;;;;;;;;;;;;;;;5075218;28;19932;-80
2022/10/09 08:15:41;;;;;;;;;;;;;;;;;;5075967;28;19916;-79
2022/10/09 08:18:07;;;;;;;;;;;;;;;;;;5076714;28;19924;-79
2022/10/09 08:20:33;;;;;;;;;;;;;;;;;;5084759;28;19991;-81
2022/10/09 08:22:58;;;;;;;;;;;;;;;;;;5076416;28;19924;-80
2022/10/09 08:25:23;;;;;;;;;;;;;;;;;;5078472;28;19923;-77
2022/10/09 08:27:51;;;;;;;;;;;;;;;;;;5077648;28;19955;-79
2022/10/09 08:30:16;;;;;;;;;;;;;;;;;;5079532;28;19958;-78
2022/10/09 08:32:41;;;;;;;;;;;;;;;;;;5081879;28;19917;-79
2022/10/09 08:35:07;;;;;;;;;;;;;;;;;;5080284;28;19916;-82
2022/10/09 08:37:32;;;;;;;;;;;;;;;;;;5081182;28;20232;-81
2022/10/09 08:39:57;;;;;;;;;;;;;;;;;;5084239;28;20116;-78
2022/10/09 08:42:29;;;;;;;;;;;;;;;;;;5079193;28;19954;-79
2022/10/09 08:44:55;;;;;;;;;;;;;;;;;;5080678;28;19924;-78
2022/10/09 08:47:20;;;;;;;;;;;;;;;;;;5080837;28;19951;-79
2022/10/09 08:49:51;;;;;;;;;;;;;;;;;;5080941;28;19923;-79
2022/10/09 08:52:40;;;;;;;;;;;;;;;;;;5073762;28;20213;-76
2022/10/09 08:55:25;;;;;;;;;;;;;;;;;;5069946;28;19924;-78
2022/10/09 08:57:52;;;;;;;;;;;;;;;;;;5072874;28;19924;-78
2022/10/09 09:00:19;;;;;;;;;;;;;;;;;;5059928;28;19962;-80
2022/10/09 09:03:05;;;;;;;;;;;;;;;;;;5080107;28;19917;-83
2022/10/09 09:05:33;;;;;;;;;;;;;;;;;;5052773;28;19917;-78
2022/10/09 09:08:15;;;;;;;;;;;;;;;;;;5071053;28;19924;-80
2022/10/09 09:10:59;;;;;;;;;;;;;;;;;;5064704;28;19917;-78
2022/10/09 09:13:50;;;;;;;;;;;;;;;;;;5066525;28;19924;-78
2022/10/09 09:16:19;;;;;;;;;;;;;;;;;;5070524;28;19958;-77
2022/10/09 09:18:50;;;;;;;;;;;;;;;;;;5077822;28;20016;-78
2022/10/09 09:21:25;;;;;;;;;;;;;;;;;;5084646;28;20276;-78
2022/10/09 09:23:50;;;;;;;;;;;;;;;;;;5092360;28;19983;-80
2022/10/09 09:26:17;;;;;;;;;;;;;;;;;;5084494;28;19924;-78
2022/10/09 09:28:43;;;;;;;;;;;;;;;;;;5082924;28;20270;-82
2022/10/09 09:31:20;;;;;;;;;;;;;;;;;;5075898;28;19913;-80
2022/10/09 09:33:56;;;;;;;;;;;;;;;;;;5075418;28;20189;-78
2022/10/09 09:36:37;;;;;;;;;;;;;;;;;;5080298;28;20200;-80
2022/10/09 09:39:03;;;;;;;;;;;;;;;;;;5081718;28;19920;-78
2022/10/09 09:41:28;;;;;;;;;;;;;;;;;;5083928;28;19922;-78
2022/10/09 09:43:53;;;;;;;;;;;;;;;;;;5083417;28;19932;-80
2022/10/09 09:46:20;;;;;;;;;;;;;;;;;;5088225;28;19916;-81
2022/10/09 09:48:47;;;;;;;;;;;;;;;;;;5083309;28;19940;-79
2022/10/09 09:51:17;;;;;;;;;;;;;;;;;;5080837;28;19963;-80
2022/10/09 09:53:47;;;;;;;;;;;;;;;;;;5078830;28;20084;-78
2022/10/09 09:56:12;;;;;;;;;;;;;;;;;;5065544;28;19944;-80
2022/10/09 09:58:42;;;;;;;;;;;;;;;;;;5080546;28;19923;-80
2022/10/09 10:01:18;;;;;;;;;;;;;;;;;;5079017;28;20211;-80
2022/10/09 10:03:47;;;;;;;;;;;;;;;;;;5081530;28;19926;-78
2022/10/09 10:06:27;;;;;;;;;;;;;;;;;;5081983;28;19958;-79
2022/10/09 10:09:03;;;;;;;;;;;;;;;;;;5083516;28;20153;-80
2022/10/09 10:11:29;;;;;;;;;;;;;;;;;;5084878;28;19923;-77
2022/10/09 10:13:55;;;;;;;;;;;;;;;;;;5086045;28;20311;-78
2022/10/09 10:16:24;;;;;;;;;;;;;;;;;;5078221;28;19916;-80
2022/10/09 10:18:50;;;;;;;;;;;;;;;;;;5075267;28;19916;-80
2022/10/09 10:21:17;;;;;;;;;;;;;;;;;;5065111;28;19916;-78
2022/10/09 10:24:02;;;;;;;;;;;;;;;;;;5080977;28;19923;-79
2022/10/09 10:26:37;;;;;;;;;;;;;;;;;;5082090;28;19916;-78
2022/10/09 10:29:14;;;;;;;;;;;;;;;;;;5082425;28;19916;-80
2022/10/09 10:31:50;;;;;;;;;;;;;;;;;;5080857;28;19954;-79
2022/10/09 10:34:22;;;;;;;;;;;;;;;;;;5089575;28;19947;-81
2022/10/09 10:36:50;;;;;;;;;;;;;;;;;;5071614;28;20096;-81
2022/10/09 10:39:28;;;;;;;;;;;;;;;;;;5078502;28;19958;-80
2022/10/09 10:41:56;;;;;;;;;;;;;;;;;;5082255;28;19920;-80
2022/10/09 10:44:24;;;;;;;;;;;;;;;;;;5089934;28;20227;-78
2022/10/09 10:46:51;;;;;;;;;;;;;;;;;;5081848;28;19916;-81
2022/10/09 10:49:18;;;;;;;;;;;;;;;;;;5073503;28;19979;-81
2022/10/09 10:51:55;;;;;;;;;;;;;;;;;;5077966;28;19916;-79
2022/10/09 10:54:38;;;;;;;;;;;;;;;;;;5078935;28;19916;-81
2022/10/09 10:57:06;;;;;;;;;;;;;;;;;;5081429;28;19922;-79
2022/10/09 10:59:35;;;;;;;;;;;;;;;;;;5081414;28;19916;-78
2022/10/09 11:02:19;;;;;;;;;;;;;;;;;;5080705;28;20239;-80
2022/10/09 11:04:47;;;;;;;;;;;;;;;;;;5082152;28;19927;-79
2022/10/09 11:07:15;;;;;;;;;;;;;;;;;;5085229;28;19917;-81
2022/10/09 11:09:56;;;;;;;;;;;;;;;;;;5076933;28;19944;-81
2022/10/09 11:12:33;;;;;;;;;;;;;;;;;;5071813;28;20219;-82
2022/10/09 11:15:03;;;;;;;;;;;;;;;;;;5074482;28;19913;-83
2022/10/09 11:17:28;;;;;;;;;;;;;;;;;;5078547;28;19976;-81
2022/10/09 11:19:56;;;;;;;;;;;;;;;;;;5078456;28;20280;-82
2022/10/09 11:22:39;;;;;;;;;;;;;;;;;;5079656;28;19916;-81
2022/10/09 11:25:25;;;;;;;;;;;;;;;;;;5078924;28;19925;-80
2022/10/09 11:28:13;;;;;;;;;;;;;;;;;;5080008;28;19951;-80
2022/10/09 11:30:42;;;;;;;;;;;;;;;;;;5082735;28;19930;-81
2022/10/09 11:33:07;;;;;;;;;;;;;;;;;;5079666;28;19920;-81
2022/10/09 11:35:36;;;;;;;;;;;;;;;;;;5076731;28;19924;-81
2022/10/09 11:38:06;;;;;;;;;;;;;;;;;;5075488;28;20251;-87
2022/10/09 11:40:37;;;;;;;;;;;;;;;;;;5079047;28;19916;-76
2022/10/09 11:43:32;;;;;;;;;;;;;;;;;;5082406;28;19923;-78
2022/10/09 11:45:57;;;;;;;;;;;;;;;;;;5059330;28;19917;-77
2022/10/09 11:48:41;;;;;;;;;;;;;;;;;;5082135;28;19923;-76
2022/10/09 11:51:06;;;;;;;;;;;;;;;;;;5074341;28;19922;-78
2022/10/09 11:53:35;;;;;;;;;;;;;;;;;;5082208;28;20113;-78
2022/10/09 11:56:05;;;;;;;;;;;;;;;;;;5074355;28;19984;-79
2022/10/09 11:58:30;;;;;;;;;;;;;;;;;;5076517;28;19917;-80
2022/10/09 12:01:06;;;;;;;;;;;;;;;;;;5078538;28;19984;-79
2022/10/09 12:03:33;;;;;;;;;;;;;;;;;;5083133;28;19916;-80
2022/10/09 12:06:04;;;;;;;;;;;;;;;;;;5082018;28;19923;-77
2022/10/09 12:08:29;;;;;;;;;;;;;;;;;;5075210;28;19923;-78
2022/10/09 12:10:57;;;;;;;;;;;;;;;;;;5056116;28;19916;-79
2022/10/09 12:13:28;;;;;;;;;;;;;;;;;;5091669;28;20291;-79
2022/10/09 12:15:55;;;;;;;;;;;;;;;;;;5078416;28;19923;-79
2022/10/09 12:18:32;;;;;;;;;;;;;;;;;;5077929;28;20215;-78
2022/10/09 12:20:59;;;;;;;;;;;;;;;;;;5067729;28;20208;-84
2022/10/09 12:23:25;;;;;;;;;;;;;;;;;;5079323;28;19912;-80
2022/10/09 12:25:52;;;;;;;;;;;;;;;;;;5081199;28;19916;-82
2022/10/09 12:28:41;;;;;;;;;;;;;;;;;;5079787;28;19985;-80
2022/10/09 12:31:13;;;;;;;;;;;;;;;;;;5067410;28;19957;-80
2022/10/09 12:33:42;;;;;;;;;;;;;;;;;;5082345;28;19909;-82
2022/10/09 12:36:15;;;;;;;;;;;;;;;;;;5076083;28;19923;-77
2022/10/09 12:38:40;;;;;;;;;;;;;;;;;;5078581;28;19924;-82
2022/10/09 12:41:09;;;;;;;;;;;;;;;;;;5080849;28;19916;-78
2022/10/09 12:43:35;;;;;;;;;;;;;;;;;;5075920;28;19931;-78
2022/10/09 12:46:00;;;;;;;;;;;;;;;;;;5069898;28;19946;-77
2022/10/09 12:48:27;;;;;;;;;;;;;;;;;;5075764;28;19994;-79
2022/10/09 12:50:53;;;;;;;;;;;;;;;;;;5079938;28;19958;-78
2022/10/09 12:53:19;;;;;;;;;;;;;;;;;;5053949;28;19924;-77
2022/10/09 12:55:58;;;;;;;;;;;;;;;;;;5071070;28;19919;-79
2022/10/09 12:58:28;;;;;;;;;;;;;;;;;;5073352;28;19917;-79
2022/10/09 13:00:55;;;;;;;;;;;;;;;;;;5082105;28;19970;-77
2022/10/09 13:03:40;;;;;;;;;;;;;;;;;;5083817;28;19962;-82
2022/10/09 13:06:07;;;;;;;;;;;;;;;;;;5081992;28;19916;-79
2022/10/09 13:08:35;;;;;;;;;;;;;;;;;;5083139;28;19916;-78
2022/10/09 13:11:11;;;;;;;;;;;;;;;;;;5084876;28;19920;-78
2022/10/09 13:13:36;;;;;;;;;;;;;;;;;;5086487;28;19916;-78
2022/10/09 13:16:05;;;;;;;;;;;;;;;;;;5083454;28;19916;-79
2022/10/09 13:18:31;;;;;;;;;;;;;;;;;;5079211;28;19924;-80
2022/10/09 13:20:57;;;;;;;;;;;;;;;;;;5069856;28;19916;-79
2022/10/09 13:23:28;;;;;;;;;;;;;;;;;;5079783;28;19943;-79
2022/10/09 13:25:53;;;;;;;;;;;;;;;;;;5087997;28;19924;-77
2022/10/09 13:28:19;;;;;;;;;;;;;;;;;;5082416;28;19912;-79
2022/10/09 13:30:44;;;;;;;;;;;;;;;;;;5090199;28;19923;-75
2022/10/09 13:33:13;;;;;;;;;;;;;;;;;;5083683;28;20127;-76
2022/10/09 13:35:38;;;;;;;;;;;;;;;;;;5083798;28;19912;-77
2022/10/09 13:38:04;;;;;;;;;;;;;;;;;;5078371;28;20226;-78
2022/10/09 13:40:29;;;;;;;;;;;;;;;;;;5094242;28;19979;-80
2022/10/09 13:42:59;;;;;;;;;;;;;;;;;;5086712;28;19972;-79
2022/10/09 13:45:24;;;;;;;;;;;;;;;;;;5082435;28;19948;-74
2022/10/09 13:47:49;;;;;;;;;;;;;;;;;;5081329;28;19923;-79
2022/10/09 13:50:15;;;;;;;;;;;;;;;;;;5080237;28;19956;-79
2022/10/09 13:52:40;;;;;;;;;;;;;;;;;;5088733;28;19936;-77
2022/10/09 13:55:06;;;;;;;;;;;;;;;;;;5082228;28;21601;-78
2022/10/09 13:57:31;;;;;;;;;;;;;;;;;;5074147;28;20109;-87
2022/10/09 13:59:56;;;;;;;;;;;;;;;;;;5082711;28;20236;-75
2022/10/09 14:02:22;;;;;;;;;;;;;;;;;;5075916;28;20199;-80
2022/10/09 14:04:47;;;;;;;;;;;;;;;;;;5077381;28;19917;-80
2022/10/09 14:07:12;;;;;;;;;;;;;;;;;;5084448;28;19987;-78
2022/10/09 14:09:38;;;;;;;;;;;;;;;;;;5075597;28;19917;-81
2022/10/09 14:12:03;;;;;;;;;;;;;;;;;;5071114;28;19920;-79
2022/10/09 14:14:28;;;;;;;;;;;;;;;;;;5080707;28;20143;-77
2022/10/09 14:16:53;;;;;;;;;;;;;;;;;;5080795;28;19919;-76
2022/10/09 14:19:19;;;;;;;;;;;;;;;;;;5083308;28;19916;-77
2022/10/09 14:21:45;;;;;;;;;;;;;;;;;;5086792;28;20151;-80
2022/10/09 14:24:11;;;;;;;;;;;;;;;;;;5072416;28;19928;-81
2022/10/09 14:26:36;;;;;;;;;;;;;;;;;;5080334;28;19916;-77
2022/10/09 14:29:02;;;;;;;;;;;;;;;;;;5079628;28;19916;-81
2022/10/09 14:31:28;;;;;;;;;;;;;;;;;;5077687;28;20124;-78
2022/10/09 14:33:55;;;;;;;;;;;;;;;;;;5082629;28;19912;-81
2022/10/09 14:36:20;;;;;;;;;;;;;;;;;;5078214;28;19916;-81
2022/10/09 14:38:46;;;;;;;;;;;;;;;;;;5086404;28;19995;-83
2022/10/09 14:41:12;;;;;;;;;;;;;;;;;;5082149;28;19923;-77
2022/10/09 14:43:38;;;;;;;;;;;;;;;;;;5077879;28;19924;-80
2022/10/09 14:46:07;;;;;;;;;;;;;;;;;;5090016;28;19958;-79
2022/10/09 14:48:33;;;;;;;;;;;;;;;;;;5078974;28;20196;-77
2022/10/09 14:51:05;;;;;;;;;;;;;;;;;;5083917;28;21072;-77
2022/10/09 14:53:31;;;;;;;;;;;;;;;;;;5062431;28;19987;-78
2022/10/09 14:55:58;;;;;;;;;;;;;;;;;;5081475;28;20294;-83
2022/10/09 14:58:24;;;;;;;;;;;;;;;;;;5081771;28;19924;-78
2022/10/09 15:00:49;;;;;;;;;;;;;;;;;;5090302;28;20195;-78
2022/10/09 15:03:14;;;;;;;;;;;;;;;;;;5084148;28;19913;-79
2022/10/09 15:05:39;;;;;;;;;;;;;;;;;;5076075;28;19923;-78
2022/10/09 15:08:04;;;;;;;;;;;;;;;;;;5083697;28;20115;-79
2022/10/09 15:10:32;;;;;;;;;;;;;;;;;;5083289;28;19912;-81
2022/10/09 15:12:57;;;;;;;;;;;;;;;;;;5071091;28;19916;-79
2022/10/09 15:15:22;;;;;;;;;;;;;;;;;;5088107;28;19913;-79
2022/10/09 15:17:48;;;;;;;;;;;;;;;;;;5078205;28;19928;-80
2022/10/09 15:20:13;;;;;;;;;;;;;;;;;;5074267;28;19920;-78
2022/10/09 15:22:38;;;;;;;;;;;;;;;;;;5080265;28;19971;-81
2022/10/09 15:25:03;;;;;;;;;;;;;;;;;;5068749;28;19936;-80
2022/10/09 15:27:29;;;;;;;;;;;;;;;;;;5086196;28;19987;-77
2022/10/09 15:29:54;;;;;;;;;;;;;;;;;;5075202;28;19916;-79
2022/10/09 15:32:19;;;;;;;;;;;;;;;;;;5083194;28;20315;-79
2022/10/09 15:34:45;;;;;;;;;;;;;;;;;;5084260;28;19924;-78
2022/10/09 15:37:10;;;;;;;;;;;;;;;;;;5086488;28;19987;-79
2022/10/09 15:39:35;;;;;;;;;;;;;;;;;;5084599;28;19916;-81
2022/10/09 15:42:00;;;;;;;;;;;;;;;;;;5080257;28;19913;-79
2022/10/09 15:44:26;;;;;;;;;;;;;;;;;;5088046;28;20113;-81
2022/10/09 15:46:51;;;;;;;;;;;;;;;;;;5078123;28;20212;-80
2022/10/09 15:49:16;;;;;;;;;;;;;;;;;;5083285;28;19926;-82
2022/10/09 15:51:42;;;;;;;;;;;;;;;;;;5078422;28;19991;-82
2022/10/09 15:54:10;;;;;;;;;;;;;;;;;;5073406;28;19912;-77
2022/10/09 15:56:35;;;;;;;;;;;;;;;;;;5074680;28;19917;-78
2022/10/09 15:59:01;;;;;;;;;;;;;;;;;;5075751;28;19920;-77
2022/10/09 16:01:26;;;;;;;;;;;;;;;;;;5080576;28;19993;-77
2022/10/09 16:03:51;;;;;;;;;;;;;;;;;;5079358;28;19973;-77
2022/10/09 16:06:19;;;;;;;;;;;;;;;;;;5068573;28;19924;-81
2022/10/09 16:08:45;;;;;;;;;;;;;;;;;;5081100;28;20128;-76
2022/10/09 16:11:11;;;;;;;;;;;;;;;;;;5081337;28;20252;-76
2022/10/09 16:13:38;;;;;;;;;;;;;;;;;;5074728;28;19926;-81
2022/10/09 16:16:05;;;;;;;;;;;;;;;;;;5062832;28;19913;-77
2022/10/09 16:18:30;;;;;;;;;;;;;;;;;;5073214;28;20045;-75
2022/10/09 16:20:55;;;;;;;;;;;;;;;;;;5059540;28;20216;-75
2022/10/09 16:23:20;;;;;;;;;;;;;;;;;;5071936;28;19968;-75
2022/10/09 16:25:55;;;;;;;;;;;;;;;;;;5083092;28;19913;-78
2022/10/09 16:28:20;;;;;;;;;;;;;;;;;;5086903;28;19916;-77
2022/10/09 16:30:46;;;;;;;;;;;;;;;;;;5075041;28;19948;-78
2022/10/09 16:33:11;;;;;;;;;;;;;;;;;;5079649;28;19966;-77
2022/10/09 16:35:36;;;;;;;;;;;;;;;;;;5074019;28;20198;-82
2022/10/09 16:38:03;;;;;;;;;;;;;;;;;;5071195;28;19920;-77
2022/10/09 16:40:29;;;;;;;;;;;;;;;;;;5076581;28;19939;-77
2022/10/09 16:42:54;;;;;;;;;;;;;;;;;;5072692;28;20212;-77
2022/10/09 16:45:19;;;;;;;;;;;;;;;;;;5068133;28;19979;-78
2022/10/09 16:47:47;;;;;;;;;;;;;;;;;;5073079;28;19920;-80
2022/10/09 16:50:12;;;;;;;;;;;;;;;;;;5074045;28;19944;-77